Terminal Aerodrome Forecast
Issued by NWS

Home | Current Version | Previous Version | Text Only | Print | Product List | Glossary Off
Versions: 1 2 3 4 5 6 7 8 9 10 11 12 13 14 15

619
FTUS43 KABR 261120
TAFATY
TAF
KATY 261120Z 2612/2712 29009KT P6SM SKC
     FM261700 30018G27KT P6SM SKC
     FM270000 31013KT P6SM SKC
     FM270200 30009KT P6SM SKC=

USA.gov is the U.S. government's official web portal to all federal, state and local government web resources and services.